Terminal Aerodrome Forecast
Issued by NWS

Home | Current Version | Previous Version | Text Only | Print | Product List | Glossary On
Versions: 1 2 3 4 5 6 7 8 9 10 11 12 13 14
759
FTUS42 TJSJ 251739
TAFJSJ
TAF
TJSJ 251739Z 2518/2618 06012KT P6SM VCSH SCT025 SCT050
     FM252230 09005KT P6SM FEW030 SCT070
     FM260600 11004KT P6SM VCSH SCT022 SCT035
     FM261400 05010KT P6SM SCT030 SCT050=

USA.gov is the U.S. government's official web portal to all federal, state and local government web resources and services.